Huvudsida
METAR-TAF:

METAR-TAF

Flygplatser :

Saint-Denis, Réunion

latitud: 20-53S, longitud: 055-31E, höjd: 21 m

Aktuellt väderrapport

Denna rapport gjordes för 35 minuter sedan, klockan 14:00 UTC
Vind 17 kt från ost/sydost
Temperatur 24°C
Fuktighet 74%
Tryck 1018 hPa
Sikt 10 km eller mer
Brutna moln på en höjd av 7200 ft
Brutna moln på en höjd av 24000 ft

METAR: FMEE 161400Z AUTO 11017KT 9999 BKN072 BKN240 24/19 Q1018 NOSIG

Tid: 18:35 (14:35 UTC)

Väderprognos

Denna rapport gjordes för 3 timmar och 35 minuter sedan, klockan 11:00 UTC
Prognos gäller från 16 kl. 12 UTC till 17 kl. 18 UTC
Vind 20 kt från ost/sydost
Sikt 10 km eller mer
Få moln på en höjd av 2300 ft
Spridda moln på en höjd av 5000 ft
Brutna moln på en höjd av 10000 ft
Blir
från 16 kl. 12 UTC till 16 kl. 14 UTC
Vind 10 kt från sydost

TAF: FMEE 161100Z 1612/1718 11020KT 9999 FEW023 SCT050 BKN100 BECMG 1612/1614 14010KT

Aktuella väderrapporter och prognoser från 4000 flygplatser (METAR- och TAF-rapporter).

De tillgängliga stationerna syns som gula och röda prickar på kartan.

För musen över prickarna för att se namnen på stationerna.

Klicka sedan för att få väderrapporter och prognoser.

För att ändra kartan: Klicka på de gröna knapparna med ett svart kors på för att zooma in; den gröna knappen med ett streck på för att zooma ut; eller på de gröna pilarna för angränsande kartor.


METAR-TAF: